Time;durP1;ratioP1;P1;durP2;ratioP2;P2;SDS_P1;SDS_P2;PMS_P1;PMS_P2;Temp;Humidity;BMP_temperature;BMP_pressure;BME280_temperature;BME280_humidity;BME280_pressure;Samples;Min_cycle;Max_cycle;Signal;HPM_P1;HPM_P2
2023/06/15 00:00:38;;;;;;;17.10;11.40;;;;;;;15.32;76.09;100137.16;103162;1257;107799;-68
2023/06/15 00:03:24;;;;;;;;;;;;;;;15.34;76.24;100133.70;102887;1261;139119;-68
2023/06/15 00:05:53;;;;;;;14.30;9.50;;;;;;;15.34;76.11;100123.38;103592;1259;111067;-68
2023/06/15 00:08:20;;;;;;;14.80;10.30;;;;;;;15.34;76.05;100114.45;103079;1259;139405;-68
2023/06/15 00:10:48;;;;;;;13.30;9.90;;;;;;;15.33;76.04;100108.52;103194;1259;97808;-68
2023/06/15 00:13:15;;;;;;;14.60;9.70;;;;;;;15.33;76.13;100107.48;103237;1255;107339;-68
2023/06/15 00:15:43;;;;;;;14.80;10.40;;;;;;;15.33;76.21;100101.90;103515;1257;138716;-68
2023/06/15 00:18:11;;;;;;;19.80;10.50;;;;;;;15.32;76.38;100099.85;103369;1258;110764;-67
2023/06/15 00:20:39;;;;;;;17.70;10.30;;;;;;;15.32;76.15;100098.83;104273;1257;138834;-67
2023/06/15 00:23:09;;;;;;;15.10;9.60;;;;;;;15.32;76.23;100097.95;103282;1259;97683;-67
2023/06/15 00:25:36;;;;;;;14.10;9.10;;;;;;;15.32;76.30;100101.45;103270;1259;138733;-67
2023/06/15 00:28:05;;;;;;;15.10;9.40;;;;;;;15.32;76.31;100105.27;103564;1260;98715;-67
2023/06/15 00:30:32;;;;;;;13.00;9.30;;;;;;;15.31;76.24;100106.39;103433;1257;109829;-68
2023/06/15 00:32:59;;;;;;;12.80;9.50;;;;;;;15.29;76.09;100111.22;103356;1258;139415;-67
2023/06/15 00:35:30;;;;;;;14.10;8.90;;;;;;;15.25;76.24;100110.56;103483;1257;97777;-67
2023/06/15 00:37:58;;;;;;;17.10;9.30;;;;;;;15.21;76.35;100116.00;102971;1259;138780;-67
2023/06/15 00:40:26;;;;;;;10.30;8.60;;;;;;;15.21;76.44;100108.85;104282;1257;98139;-67
2023/06/15 00:42:53;;;;;;;15.50;9.00;;;;;;;15.19;76.80;100107.91;103745;1259;111145;-67
2023/06/15 00:45:21;;;;;;;12.60;9.80;;;;;;;15.19;76.88;100107.23;103045;1260;139057;-67
2023/06/15 00:47:49;;;;;;;11.30;8.60;;;;;;;15.16;76.77;100099.99;103124;1257;98313;-67
2023/06/15 00:50:19;;;;;;;10.10;8.90;;;;;;;15.12;76.85;100097.77;103234;1260;138640;-67
2023/06/15 00:52:50;;;;;;;11.50;9.10;;;;;;;15.07;76.84;100099.59;104019;1258;96025;-68
2023/06/15 00:55:23;;;;;;;11.00;9.10;;;;;;;15.02;76.85;100098.63;103770;1259;111623;-67
2023/06/15 00:57:52;;;;;;;13.30;9.30;;;;;;;14.99;77.07;100096.89;103215;1260;107633;-67
2023/06/15 01:00:20;;;;;;;11.80;8.50;;;;;;;14.94;77.07;100097.83;102959;1257;98319;-67
2023/06/15 01:02:50;;;;;;;15.20;9.30;;;;;;;14.90;77.22;100099.80;102848;1261;138995;-67
2023/06/15 01:05:19;;;;;;;11.20;9.20;;;;;;;14.87;77.37;100102.58;103322;1259;97786;-67
2023/06/15 01:07:48;;;;;;;11.80;8.50;;;;;;;14.85;77.43;100106.17;103017;1259;139934;-67
2023/06/15 01:10:18;;;;;;;12.70;9.60;;;;;;;14.85;77.61;100106.92;103358;1261;107932;-67
2023/06/15 01:12:50;;;;;;;12.10;8.50;;;;;;;14.87;77.79;100109.25;103141;1259;97827;-67
2023/06/15 01:15:18;;;;;;;15.70;9.00;;;;;;;14.90;77.79;100112.95;102966;1256;139177;-67
2023/06/15 01:17:53;;;;;;;11.00;9.30;;;;;;;14.90;77.74;100113.45;103320;1261;97786;-67
2023/06/15 01:20:27;;;;;;;12.80;9.90;;;;;;;14.91;78.04;100118.14;102961;1257;138649;-67
2023/06/15 01:23:01;;;;;;;10.90;9.50;;;;;;;14.90;78.08;100118.90;103076;1258;108259;-67
2023/06/15 01:25:40;;;;;;;12.80;9.60;;;;;;;14.82;78.16;100121.41;103601;1258;97844;-67
2023/06/15 01:28:10;;;;;;;10.90;9.80;;;;;;;14.75;78.44;100118.98;103583;1261;107385;-66
2023/06/15 01:30:41;;;;;;;13.60;10.40;;;;;;;14.69;78.71;100119.29;103304;1260;97787;-67
2023/06/15 01:33:09;;;;;;;18.70;9.70;;;;;;;14.64;78.81;100117.95;103989;1258;138898;-67
2023/06/15 01:35:38;;;;;;;14.90;9.10;;;;;;;14.61;78.88;100112.70;103505;1260;107329;-67
2023/06/15 01:38:08;;;;;;;12.90;9.90;;;;;;;14.62;79.01;100113.36;102984;1259;138844;-67
2023/06/15 01:40:38;;;;;;;10.80;9.50;;;;;;;14.63;79.11;100109.81;103094;1260;108332;-67
2023/06/15 01:43:10;;;;;;;13.20;10.10;;;;;;;14.62;79.07;100105.11;103013;1257;97813;-67
2023/06/15 01:45:40;;;;;;;11.50;9.30;;;;;;;14.63;79.20;100109.08;102820;1259;138908;-67
2023/06/15 01:48:08;;;;;;;16.10;10.30;;;;;;;14.65;79.44;100107.42;102849;1259;108782;-66
2023/06/15 01:50:37;;;;;;;13.20;10.30;;;;;;;14.67;79.77;100108.70;103235;1259;139016;-66
2023/06/15 01:53:05;;;;;;;11.60;10.40;;;;;;;14.71;80.06;100106.05;103077;1261;107718;-66
2023/06/15 01:55:32;;;;;;;14.30;10.50;;;;;;;14.74;80.41;100103.64;103025;1258;97794;-67
2023/06/15 01:58:00;;;;;;;15.10;10.80;;;;;;;14.75;80.74;100100.41;103039;1258;112011;-66
2023/06/15 02:00:27;;;;;;;16.60;10.60;;;;;;;14.77;81.27;100092.27;102932;1259;108291;-66
2023/06/15 02:02:57;;;;;;;14.50;10.80;;;;;;;14.75;80.97;100087.64;102911;1259;139555;-66
2023/06/15 02:05:25;;;;;;;14.40;10.80;;;;;;;14.73;81.39;100090.37;102924;1257;107873;-66
2023/06/15 02:07:52;;;;;;;14.30;11.30;;;;;;;14.71;81.79;100089.08;102850;1259;139159;-66
2023/06/15 02:10:22;;;;;;;17.80;10.90;;;;;;;14.69;81.92;100086.16;102966;1258;110928;-66
2023/06/15 02:12:49;;;;;;;13.70;10.70;;;;;;;14.67;81.93;100088.90;103189;1259;107532;-66
2023/06/15 02:15:18;;;;;;;13.70;10.50;;;;;;;14.66;81.69;100089.16;103104;1257;139031;-66
2023/06/15 02:17:46;;;;;;;17.60;10.80;;;;;;;14.66;81.76;100093.73;103069;1258;108485;-66
2023/06/15 02:20:15;;;;;;;18.30;11.20;;;;;;;14.65;81.66;100098.98;103052;1261;139539;-66
2023/06/15 02:22:43;;;;;;;12.90;11.00;;;;;;;14.64;81.55;100102.38;103569;1257;111365;-67
2023/06/15 02:25:12;;;;;;;13.80;10.50;;;;;;;14.61;81.53;100099.39;103148;1259;108176;-66
2023/06/15 02:27:40;;;;;;;16.20;10.10;;;;;;;14.59;81.53;100100.02;103369;1260;139191;-66
2023/06/15 02:30:10;;;;;;;13.20;10.60;;;;;;;14.56;81.41;100101.74;103677;1257;107790;-66
2023/06/15 02:32:39;;;;;;;15.80;11.00;;;;;;;14.53;81.62;100105.02;102866;1257;139011;-66
2023/06/15 02:35:11;;;;;;;14.00;10.20;;;;;;;14.51;81.74;100105.46;104272;1258;111311;-67
2023/06/15 02:37:39;;;;;;;14.60;10.80;;;;;;;14.49;81.72;100102.76;103204;1261;139036;-67
2023/06/15 02:40:10;;;;;;;12.70;11.00;;;;;;;14.46;81.61;100099.42;103045;1261;97694;-67
2023/06/15 02:42:38;;;;;;;16.40;10.70;;;;;;;14.44;81.61;100099.21;103392;1257;107999;-67
2023/06/15 02:45:08;;;;;;;15.60;11.50;;;;;;;14.43;81.73;100102.54;103573;1261;139557;-67
2023/06/15 02:47:36;;;;;;;15.00;11.40;;;;;;;14.44;81.99;100100.08;103121;1259;112751;-67
2023/06/15 02:50:04;;;;;;;14.60;12.30;;;;;;;14.43;81.81;100099.92;103382;1257;142779;-68
2023/06/15 02:52:36;;;;;;;14.80;11.40;;;;;;;14.43;81.92;100098.00;103164;1259;97882;-67
2023/06/15 02:55:09;;;;;;;14.60;11.30;;;;;;;14.43;81.91;100101.85;102950;1259;107667;-67
2023/06/15 02:57:36;;;;;;;14.60;11.00;;;;;;;14.44;82.28;100101.13;104069;1257;139885;-67
2023/06/15 03:00:18;;;;;;;18.10;11.70;;;;;;;14.46;82.55;100105.42;103432;1258;111801;-67
2023/06/15 03:02:52;;;;;;;13.50;11.30;;;;;;;14.47;82.87;100106.73;102988;1261;140529;-67
2023/06/15 03:05:22;;;;;;;15.80;11.70;;;;;;;14.48;83.30;100110.88;102924;1259;97689;-67
2023/06/15 03:07:52;;;;;;;13.80;11.90;;;;;;;14.48;83.45;100111.05;103085;1258;138882;-67
2023/06/15 03:10:31;;;;;;;14.30;11.10;;;;;;;14.46;83.47;100111.67;103202;1261;97682;-67
2023/06/15 03:12:58;;;;;;;16.90;11.10;;;;;;;14.47;83.47;100112.69;103260;1259;110936;-67
2023/06/15 03:15:26;;;;;;;14.70;11.80;;;;;;;14.50;83.67;100111.48;103422;1261;140900;-67
2023/06/15 03:17:54;;;;;;;12.60;11.10;;;;;;;14.52;83.83;100113.30;103263;1257;97743;-67
2023/06/15 03:20:23;;;;;;;18.50;13.70;;;;;;;14.53;83.74;100112.91;103048;1259;138806;-67
2023/06/15 03:22:50;;;;;;;15.10;12.50;;;;;;;14.56;83.92;100105.96;103076;1259;97840;-68
2023/06/15 03:25:20;;;;;;;14.70;11.70;;;;;;;14.58;84.04;100099.92;103619;1261;111743;-67
2023/06/15 03:27:49;;;;;;;15.10;11.00;;;;;;;14.59;84.13;100098.09;102945;1261;139158;-67
2023/06/15 03:30:17;;;;;;;16.90;11.80;;;;;;;14.62;83.78;100099.54;103495;1257;97751;-67
2023/06/15 03:32:46;;;;;;;15.20;11.50;;;;;;;14.62;83.78;100096.38;103140;1258;138729;-67
2023/06/15 03:35:15;;;;;;;16.10;11.80;;;;;;;14.63;83.57;100096.30;103375;1258;97834;-67
2023/06/15 03:37:44;;;;;;;15.70;11.70;;;;;;;14.63;84.03;100097.17;103073;1258;140094;-68
2023/06/15 03:40:12;;;;;;;13.30;11.20;;;;;;;14.64;84.03;100094.52;102938;1261;108181;-67
2023/06/15 03:42:40;;;;;;;14.50;11.50;;;;;;;14.66;84.15;100094.77;103150;1264;97763;-68
2023/06/15 03:45:09;;;;;;;18.30;12.30;;;;;;;14.68;84.02;100094.99;102849;1258;140309;-67
2023/06/15 03:47:36;;;;;;;15.20;11.00;;;;;;;14.68;83.78;100089.77;103356;1259;97779;-67
2023/06/15 03:50:06;;;;;;;15.70;10.80;;;;;;;14.69;83.79;100089.88;103059;1261;139014;-67
2023/06/15 03:52:35;;;;;;;14.60;11.30;;;;;;;14.73;83.45;100095.08;103004;1261;107981;-67
2023/06/15 03:55:04;;;;;;;15.40;11.10;;;;;;;14.78;83.47;100095.70;103223;1261;97793;-67
2023/06/15 03:57:31;;;;;;;15.40;10.70;;;;;;;14.86;83.31;100097.91;103276;1257;139327;-67
2023/06/15 03:59:59;;;;;;;14.10;10.30;;;;;;;14.92;82.98;100095.70;103177;1258;97675;-67
2023/06/15 04:02:26;;;;;;;15.20;10.90;;;;;;;14.98;83.01;100096.95;102974;1261;138776;-67
2023/06/15 04:04:56;;;;;;;16.00;11.40;;;;;;;15.03;83.02;100095.80;103207;1259;107652;-67
2023/06/15 04:07:24;;;;;;;14.30;10.50;;;;;;;15.04;82.71;100096.61;103667;1260;97897;-67
2023/06/15 04:09:51;;;;;;;16.30;10.50;;;;;;;15.06;82.90;100094.91;103062;1261;138666;-67
2023/06/15 04:12:19;;;;;;;11.90;10.60;;;;;;;15.09;82.72;100095.64;103664;1259;97914;-67
2023/06/15 04:14:46;;;;;;;12.30;10.80;;;;;;;15.14;82.96;100092.05;102920;1261;139547;-67
2023/06/15 04:17:16;;;;;;;14.70;11.40;;;;;;;15.20;82.73;100095.57;103107;1261;107611;-68
2023/06/15 04:19:43;;;;;;;16.00;10.70;;;;;;;15.24;82.59;100096.05;103418;1259;140072;-67
2023/06/15 04:22:11;;;;;;;13.50;10.50;;;;;;;15.28;82.92;100092.34;102968;1258;108277;-66
2023/06/15 04:24:39;;;;;;;14.40;11.00;;;;;;;15.32;82.81;100091.77;103161;1261;98297;-66
2023/06/15 04:27:08;;;;;;;12.70;10.60;;;;;;;15.38;82.84;100089.85;103037;1261;138763;-66
2023/06/15 04:29:35;;;;;;;19.10;11.60;;;;;;;15.44;82.80;100095.35;103341;1257;107194;-66
2023/06/15 04:32:05;;;;;;;12.40;11.10;;;;;;;15.48;82.76;100094.96;103052;1258;139093;-66
2023/06/15 04:34:34;;;;;;;15.30;10.20;;;;;;;15.50;82.61;100094.82;103836;1261;107809;-67
2023/06/15 04:37:06;;;;;;;13.90;11.10;;;;;;;15.52;82.12;100099.48;103172;1262;97793;-67
2023/06/15 04:39:35;;;;;;;16.30;10.90;;;;;;;15.52;81.56;100103.13;103140;1261;139888;-67
2023/06/15 04:42:04;;;;;;;12.20;10.00;;;;;;;15.53;81.22;100099.02;103011;1258;108953;-67
2023/06/15 04:44:33;;;;;;;14.10;10.20;;;;;;;15.55;81.56;100097.34;103254;1258;139161;-67
2023/06/15 04:47:03;;;;;;;13.70;10.20;;;;;;;15.59;81.68;100095.39;102925;1257;108256;-68
2023/06/15 04:49:31;;;;;;;15.20;10.80;;;;;;;15.60;81.35;100095.34;103130;1262;97857;-67
2023/06/15 04:52:01;;;;;;;14.70;11.10;;;;;;;15.63;81.73;100095.89;102836;1263;111234;-67
2023/06/15 04:54:29;;;;;;;15.10;10.90;;;;;;;15.63;81.39;100097.27;102816;1263;109390;-68
2023/06/15 04:56:58;;;;;;;15.20;11.20;;;;;;;15.64;81.46;100101.13;102827;1257;138997;-67
2023/06/15 04:59:26;;;;;;;17.00;11.00;;;;;;;15.65;81.43;100102.26;103003;1260;108510;-67
2023/06/15 05:01:54;;;;;;;13.10;11.20;;;;;;;15.68;81.70;100102.63;102794;1262;140114;-68
2023/06/15 05:04:26;;;;;;;14.70;11.20;;;;;;;15.70;81.73;100099.85;103384;1257;111002;-68
2023/06/15 05:06:54;;;;;;;14.80;11.00;;;;;;;15.74;81.63;100096.34;103014;1262;106759;-67
2023/06/15 05:09:22;;;;;;;13.90;11.30;;;;;;;15.79;81.74;100093.77;103332;1261;139815;-68
2023/06/15 05:11:51;;;;;;;12.60;11.00;;;;;;;15.85;81.71;100094.33;103304;1260;107580;-67
2023/06/15 05:14:18;;;;;;;12.80;11.40;;;;;;;15.93;81.51;100097.55;102947;1261;140070;-68
2023/06/15 05:16:47;;;;;;;15.20;10.60;;;;;;;16.03;81.47;100101.90;102783;1262;112875;-68
2023/06/15 05:19:14;;;;;;;12.80;10.40;;;;;;;16.13;81.34;100099.89;102861;1262;107745;-68
2023/06/15 05:21:42;;;;;;;12.90;10.70;;;;;;;16.25;81.01;100102.17;102930;1261;139737;-68
2023/06/15 05:24:10;;;;;;;14.60;11.30;;;;;;;16.40;80.84;100108.15;103274;1260;109036;-68
2023/06/15 05:26:38;;;;;;;14.30;12.00;;;;;;;16.48;80.41;100110.81;103504;1262;138934;-68
2023/06/15 05:29:09;;;;;;;27.80;12.50;;;;;;;16.52;80.09;100113.76;103033;1257;111845;-68
2023/06/15 05:31:37;;;;;;;17.40;12.10;;;;;;;16.56;80.10;100113.70;102869;1260;139011;-68
2023/06/15 05:34:04;;;;;;;17.10;11.60;;;;;;;16.61;80.04;100117.95;103801;1262;99237;-68
2023/06/15 05:36:34;;;;;;;12.70;10.60;;;;;;;16.66;79.86;100119.24;102964;1258;108063;-68
2023/06/15 05:39:22;;;;;;;11.90;10.00;;;;;;;16.72;79.64;100116.46;102981;1259;138813;-67
2023/06/15 05:41:52;;;;;;;12.90;10.50;;;;;;;16.78;79.55;100123.83;103352;1258;111371;-69
2023/06/15 05:44:19;;;;;;;17.70;9.90;;;;;;;16.90;79.37;100129.64;103531;1258;138832;-69
2023/06/15 05:46:47;;;;;;;14.70;11.20;;;;;;;17.16;79.25;100130.16;103364;1258;98333;-68
2023/06/15 05:49:16;;;;;;;12.00;9.40;;;;;;;17.62;78.81;100120.77;103148;1258;108983;-69
2023/06/15 05:51:43;;;;;;;16.10;10.70;;;;;;;18.28;78.49;100115.30;102814;1257;138839;-69
2023/06/15 05:54:11;;;;;;;19.20;13.40;;;;;;;18.98;77.47;100117.81;102822;1257;111040;-69
2023/06/15 05:56:39;;;;;;;14.50;11.30;;;;;;;19.74;76.15;100113.86;102759;1262;138813;-72
2023/06/15 05:59:06;;;;;;;23.60;11.50;;;;;;;20.51;74.53;100112.21;102906;1258;97710;-76
2023/06/15 06:01:53;;;;;;;21.80;12.40;;;;;;;21.38;72.21;100112.77;102935;1257;139496;-77
2023/06/15 06:04:20;;;;;;;16.70;10.30;;;;;;;22.87;70.01;100105.39;102919;1262;97790;-77
2023/06/15 06:06:49;;;;;;;17.20;9.10;;;;;;;24.11;65.81;100101.23;102921;1258;110852;-74
2023/06/15 06:09:18;;;;;;;26.10;10.60;;;;;;;24.10;63.00;100101.84;102798;1260;138184;-81
2023/06/15 06:11:47;;;;;;;17.60;10.00;;;;;;;24.40;62.64;100105.16;102988;1257;97845;-78
2023/06/15 06:14:16;;;;;;;15.80;9.60;;;;;;;25.34;60.98;100100.57;102773;1262;138324;-76
2023/06/15 06:16:44;;;;;;;15.40;9.40;;;;;;;26.35;58.46;100097.80;103075;1260;97833;-73
2023/06/15 06:19:11;;;;;;;13.70;9.40;;;;;;;27.62;55.91;100101.46;102857;1263;111646;-76
2023/06/15 06:21:39;;;;;;;13.10;8.30;;;;;;;28.95;53.95;100099.80;102835;1261;139288;-77
2023/06/15 06:24:08;;;;;;;10.70;7.50;;;;;;;30.17;51.27;100100.35;102964;1261;97814;-76
2023/06/15 06:26:37;;;;;;;10.90;6.80;;;;;;;31.39;49.34;100100.91;102777;1262;137930;-69
2023/06/15 06:29:04;;;;;;;11.00;6.70;;;;;;;31.88;46.60;100100.46;103012;1260;97784;-75
2023/06/15 06:31:32;;;;;;;7.70;6.20;;;;;;;31.54;45.27;100107.10;103001;1258;103808;-71
2023/06/15 06:34:00;;;;;;;11.20;6.60;;;;;;;31.22;44.87;100106.75;102887;1264;108617;-70
2023/06/15 06:36:28;;;;;;;7.60;5.40;;;;;;;31.67;44.48;100109.63;103053;1260;97688;-70
2023/06/15 06:38:55;;;;;;;8.30;5.30;;;;;;;32.83;42.96;100111.21;102979;1260;137647;-70
2023/06/15 06:41:30;;;;;;;9.30;5.20;;;;;;;34.09;40.91;100106.85;102935;1257;97883;-71
2023/06/15 06:43:57;;;;;;;7.10;4.70;;;;;;;35.09;39.34;100104.73;102961;1258;137714;-70
2023/06/15 06:46:24;;;;;;;8.40;5.40;;;;;;;36.01;37.86;100102.80;102986;1258;99144;-71
2023/06/15 06:48:52;;;;;;;9.40;5.60;;;;;;;36.83;36.69;100103.23;102982;1258;98124;-70
2023/06/15 06:51:19;;;;;;;7.50;5.00;;;;;;;37.64;35.02;100108.23;102835;1261;138233;-71
2023/06/15 06:53:47;;;;;;;6.70;4.30;;;;;;;37.99;33.53;100102.79;103032;1261;97800;-72
2023/06/15 06:56:14;;;;;;;7.90;5.00;;;;;;;38.59;32.85;100097.04;103176;1257;137861;-72
2023/06/15 06:58:41;;;;;;;5.50;4.00;;;;;;;39.24;31.97;100097.79;103805;1260;98933;-72
2023/06/15 07:01:09;;;;;;;4.90;4.00;;;;;;;39.84;31.35;100091.33;102905;1259;97659;-73
2023/06/15 07:03:38;;;;;;;6.90;4.20;;;;;;;40.45;30.80;100090.02;102778;1257;137901;-73
2023/06/15 07:06:06;;;;;;;8.00;4.70;;;;;;;40.96;29.49;100090.70;103003;1258;97792;-73
2023/06/15 07:08:33;;;;;;;7.30;6.20;;;;;;;40.21;28.71;100089.84;102858;1257;137610;-73
2023/06/15 07:11:01;;;;;;;10.20;5.30;;;;;;;38.70;28.57;100090.17;102967;1258;100067;-75
2023/06/15 07:13:29;;;;;;;7.90;5.50;;;;;;;37.08;29.20;100095.24;102945;1257;97743;-75
2023/06/15 07:15:57;;;;;;;9.00;5.70;;;;;;;35.59;29.88;100095.12;102770;1261;139424;-75
2023/06/15 07:18:25;;;;;;;10.90;5.90;;;;;;;34.17;30.46;100098.84;102954;1258;97800;-75
2023/06/15 07:20:54;;;;;;;10.00;5.70;;;;;;;32.75;31.69;100101.27;102893;1258;137899;-74
2023/06/15 07:23:22;;;;;;;7.70;5.40;;;;;;;31.55;32.94;100100.02;103022;1257;99563;-73
2023/06/15 07:25:49;;;;;;;13.10;6.10;;;;;;;30.48;33.92;100100.55;102941;1261;137704;-73
2023/06/15 07:28:17;;;;;;;12.60;6.30;;;;;;;29.70;35.23;100104.58;102967;1260;108256;-74
2023/06/15 07:30:46;;;;;;;10.60;5.70;;;;;;;29.00;35.72;100108.63;103026;1261;97803;-75
2023/06/15 07:33:13;;;;;;;7.00;5.60;;;;;;;28.41;36.64;100107.46;102942;1257;137771;-75
2023/06/15 07:35:41;;;;;;;11.90;5.90;;;;;;;28.10;37.74;100109.39;102874;1257;107607;-75
2023/06/15 07:38:08;;;;;;;11.70;6.10;;;;;;;28.17;38.00;100105.92;103347;1259;138072;-76
2023/06/15 07:40:35;;;;;;;9.40;6.00;;;;;;;29.10;37.61;100110.34;102950;1257;107989;-76
2023/06/15 07:43:03;;;;;;;7.60;5.80;;;;;;;30.15;36.47;100105.32;103019;1257;97892;-73
2023/06/15 07:45:30;;;;;;;10.90;6.00;;;;;;;31.17;35.26;100101.73;102880;1260;137956;-75
2023/06/15 07:47:57;;;;;;;9.70;5.40;;;;;;;31.82;34.56;100104.25;102979;1257;107382;-75
2023/06/15 07:50:27;;;;;;;9.30;5.50;;;;;;;31.83;34.45;100103.73;102858;1260;137767;-75
2023/06/15 07:52:54;;;;;;;11.00;8.10;;;;;;;31.67;34.42;100102.99;102962;1261;108747;-75
2023/06/15 07:55:21;;;;;;;11.30;7.70;;;;;;;31.50;34.70;100103.89;102893;1260;97891;-75
2023/06/15 07:57:49;;;;;;;5.80;4.90;;;;;;;31.35;34.80;100105.22;102725;1257;138367;-76
2023/06/15 08:00:20;;;;;;;8.10;4.90;;;;;;;31.13;34.48;100109.48;102979;1260;107693;-75
2023/06/15 08:02:58;;;;;;;10.70;5.20;;;;;;;30.71;34.86;100107.66;102868;1257;137839;-76
2023/06/15 08:05:26;;;;;;;5.70;4.60;;;;;;;30.61;35.15;100103.30;102931;1257;108197;-74
2023/06/15 08:07:53;;;;;;;7.60;4.70;;;;;;;31.35;34.89;100102.97;102864;1260;138211;-75
2023/06/15 08:10:21;;;;;;;8.80;4.70;;;;;;;32.37;33.71;100102.59;102942;1257;111267;-78
2023/06/15 08:12:49;;;;;;;7.00;4.80;;;;;;;32.36;32.60;100103.38;102984;1260;107938;-76
2023/06/15 08:15:16;;;;;;;4.70;4.10;;;;;;;31.64;32.46;100106.56;102862;1260;137760;-77
2023/06/15 08:17:43;;;;;;;7.10;4.70;;;;;;;30.97;32.68;100102.89;103017;1260;109692;-76
2023/06/15 08:20:12;;;;;;;7.00;4.20;;;;;;;30.86;33.05;100098.50;102940;1258;138463;-76
2023/06/15 08:22:40;;;;;;;7.10;4.10;;;;;;;30.21;33.59;100098.08;103579;1257;110281;-74
2023/06/15 08:25:09;;;;;;;5.80;4.60;;;;;;;29.63;35.10;100095.17;103014;1260;107880;-73
2023/06/15 08:27:38;;;;;;;13.60;4.40;;;;;;;29.45;36.30;100095.44;103215;1258;138917;-74
2023/06/15 08:30:06;;;;;;;23.60;5.30;;;;;;;30.08;36.16;100090.81;102982;1257;109218;-79
2023/06/15 08:32:33;;;;;;;10.20;4.70;;;;;;;31.09;35.81;100091.84;103165;1260;137992;-76
2023/06/15 08:35:01;;;;;;;6.40;4.70;;;;;;;32.11;35.12;100091.53;103063;1260;111413;-75
2023/06/15 08:37:30;;;;;;;10.30;4.70;;;;;;;32.88;34.13;100098.00;103038;1257;99047;-77
2023/06/15 08:39:57;;;;;;;6.20;4.10;;;;;;;33.53;33.70;100098.38;102906;1257;137630;-78
2023/06/15 08:42:26;;;;;;;5.80;3.90;;;;;;;34.10;32.88;100092.71;103010;1258;100116;-78
2023/06/15 08:44:57;;;;;;;6.90;3.70;;;;;;;33.98;31.80;100093.06;102840;1260;138309;-77
2023/06/15 08:47:25;;;;;;;6.00;3.80;;;;;;;33.40;31.79;100094.72;103130;1257;111670;-77
2023/06/15 08:49:53;;;;;;;4.40;3.90;;;;;;;33.05;31.29;100092.27;102879;1257;137963;-76
2023/06/15 08:52:24;;;;;;;4.90;3.60;;;;;;;32.38;30.65;100086.04;102991;1257;97817;-76
2023/06/15 08:54:54;;;;;;;4.60;3.80;;;;;;;31.50;31.12;100084.85;103070;1257;100147;-76
2023/06/15 08:57:22;;;;;;;3.80;3.50;;;;;;;31.43;32.52;100081.30;102972;1260;137828;-77
2023/06/15 08:59:50;;;;;;;10.90;3.80;;;;;;;31.88;32.39;100077.98;103136;1258;112621;-76
2023/06/15 09:02:22;;;;;;;4.10;3.40;;;;;;;32.35;32.32;100081.40;102984;1257;138223;-76
2023/06/15 09:04:51;;;;;;;4.90;3.80;;;;;;;32.45;32.14;100075.48;103285;1257;98604;-76
2023/06/15 09:07:20;;;;;;;5.20;3.80;;;;;;;31.94;31.44;100082.05;103529;1260;99100;-74
2023/06/15 09:10:14;;;;;;;5.70;4.10;;;;;;;30.97;31.47;100083.64;103504;1257;137815;-76
2023/06/15 09:12:46;;;;;;;6.50;3.90;;;;;;;30.06;32.72;100080.41;103394;1257;111563;-78
2023/06/15 09:15:18;;;;;;;8.00;4.10;;;;;;;29.60;33.38;100081.00;103217;1257;137712;-78
2023/06/15 09:17:46;;;;;;;9.50;4.20;;;;;;;28.87;33.39;100088.15;103013;1257;97888;-77
2023/06/15 09:20:14;;;;;;;6.10;4.60;;;;;;;28.14;34.04;100085.27;102851;1257;137887;-77
2023/06/15 09:22:45;;;;;;;6.50;4.40;;;;;;;27.82;34.96;100086.25;103034;1260;97876;-76
2023/06/15 09:25:20;;;;;;;4.40;3.90;;;;;;;27.67;35.41;100087.17;104406;1257;110652;-75
2023/06/15 09:27:58;;;;;;;7.80;4.30;;;;;;;27.34;35.81;100086.50;103561;1257;138472;-77
2023/06/15 09:30:32;;;;;;;6.20;4.40;;;;;;;27.12;36.03;100089.60;102991;1257;99213;-77
2023/06/15 09:33:00;;;;;;;7.40;4.50;;;;;;;26.60;35.97;100090.05;103330;1257;137688;-77
2023/06/15 09:35:27;;;;;;;7.50;4.90;;;;;;;26.23;36.49;100085.95;104351;1257;96463;-76
2023/06/15 09:37:57;;;;;;;8.20;4.50;;;;;;;26.61;37.61;100086.58;103913;1256;138907;-74
2023/06/15 09:40:28;;;;;;;7.30;4.50;;;;;;;27.41;37.42;100080.58;103975;1257;107051;-74
2023/06/15 09:42:57;;;;;;;9.20;4.80;;;;;;;28.18;37.27;100084.00;103067;1258;97967;-73
2023/06/15 09:45:24;;;;;;;5.00;4.20;;;;;;;28.69;35.50;100087.56;103110;1257;137721;-72
2023/06/15 09:47:57;;;;;;;7.10;3.70;;;;;;;28.66;34.85;100078.41;103032;1258;98115;-77
2023/06/15 09:50:30;;;;;;;5.90;3.70;;;;;;;28.89;35.39;100076.55;103067;1258;138295;-73
2023/06/15 09:52:59;;;;;;;6.20;4.40;;;;;;;28.97;35.15;100075.99;103043;1257;107129;-72
2023/06/15 09:55:27;;;;;;;5.70;4.80;;;;;;;28.54;34.28;100077.72;104391;1257;95823;-72
2023/06/15 09:57:55;;;;;;;8.40;4.90;;;;;;;28.08;34.84;100075.75;102959;1257;137413;-72
2023/06/15 10:00:24;;;;;;;9.30;4.90;;;;;;;27.70;35.28;100081.66;103418;1257;97897;-73
2023/06/15 10:02:56;;;;;;;7.90;4.10;;;;;;;27.16;35.43;100084.17;103040;1257;311543;-74
2023/06/15 10:05:30;;;;;;;6.20;4.30;;;;;;;26.63;35.90;100086.16;103867;1257;107745;-72
2023/06/15 10:07:58;;;;;;;6.70;5.10;;;;;;;26.09;36.52;100085.77;102894;1257;138228;-71
2023/06/15 10:10:26;;;;;;;7.40;4.70;;;;;;;25.49;37.15;100084.00;103615;1255;107746;-75
2023/06/15 10:12:56;;;;;;;6.30;4.50;;;;;;;25.07;37.80;100091.57;103020;1256;97770;-72
2023/06/15 10:15:26;;;;;;;8.10;4.70;;;;;;;24.56;37.95;100089.43;103264;1257;137610;-71
2023/06/15 10:17:56;;;;;;;6.20;4.60;;;;;;;24.06;38.77;100087.46;102956;1257;108202;-74
2023/06/15 10:20:26;;;;;;;8.10;5.10;;;;;;;23.67;39.25;100088.75;103006;1257;137889;-73
2023/06/15 10:23:03;;;;;;;8.20;5.20;;;;;;;23.33;39.90;100090.05;103146;1257;108910;-73
2023/06/15 10:25:31;;;;;;;6.40;5.50;;;;;;;23.04;40.55;100097.98;103185;1261;97980;-74
2023/06/15 10:28:02;;;;;;;12.70;6.10;;;;;;;22.68;41.71;100100.52;102982;1257;137485;-74
2023/06/15 10:30:35;;;;;;;12.10;6.60;;;;;;;22.26;43.76;100102.64;102885;1257;109646;-82
2023/06/15 10:33:12;;;;;;;8.10;7.00;;;;;;;21.98;45.34;100105.64;103452;1258;137974;-80
2023/06/15 10:35:46;;;;;;;8.50;7.00;;;;;;;21.83;46.48;100107.23;102907;1257;108453;-74
2023/06/15 10:38:31;;;;;;;9.60;7.30;;;;;;;21.63;47.02;100109.30;102805;1258;139830;-79
2023/06/15 10:41:04;;;;;;;11.70;7.90;;;;;;;21.50;48.17;100108.42;103036;1260;111182;-79
2023/06/15 10:43:31;;;;;;;11.40;8.10;;;;;;;21.51;48.93;100108.71;102935;1258;107165;-78
2023/06/15 10:46:00;;;;;;;8.10;6.80;;;;;;;21.63;49.26;100107.52;102870;1257;137779;-79
2023/06/15 10:48:29;;;;;;;8.20;7.40;;;;;;;22.06;49.29;100101.92;102982;1257;108093;-78
2023/06/15 10:51:06;;;;;;;9.70;8.30;;;;;;;22.46;49.11;100095.42;102907;1261;137806;-79
2023/06/15 10:53:38;;;;;;;11.60;7.10;;;;;;;22.98;49.24;100093.10;103031;1258;111763;-78
2023/06/15 10:56:13;;;;;;;9.40;6.30;;;;;;;23.51;48.20;100089.07;102902;1257;138095;-76
2023/06/15 10:58:54;;;;;;;9.00;5.90;;;;;;;24.09;47.38;100091.51;102935;1257;99472;-75
2023/06/15 11:01:23;;;;;;;9.20;5.30;;;;;;;24.65;46.39;100091.30;102883;1257;107930;-74
2023/06/15 11:03:54;;;;;;;5.40;4.50;;;;;;;25.05;44.35;100092.11;102817;1260;137597;-77
2023/06/15 11:06:30;;;;;;;4.90;4.30;;;;;;;25.13;42.44;100088.00;103047;1260;110602;-75
2023/06/15 11:09:04;;;;;;;6.50;4.30;;;;;;;24.80;42.05;100083.80;102898;1256;137873;-76
2023/06/15 11:11:35;;;;;;;8.30;6.90;;;;;;;24.78;42.50;100087.77;102979;1257;97758;-77
2023/06/15 11:14:05;;;;;;;6.90;6.20;;;;;;;24.76;42.29;100082.33;102775;1257;137765;-75